Time;durP1;ratioP1;P1;durP2;ratioP2;P2;SDS_P1;SDS_P2;PMS_P1;PMS_P2;Temp;Humidity;BMP_temperature;BMP_pressure;BME280_temperature;BME280_humidity;BME280_pressure;Samples;Min_cycle;Max_cycle;Signal;HPM_P1;HPM_P2
2020/12/19 00:01:11;;;;;;;19.17;6.35;;;3.10;99.90;;;;;;4960995;28;20032;-74
2020/12/19 00:03:37;;;;;;;15.85;7.40;;;3.10;99.90;;;;;;4961222;28;20158;-74
2020/12/19 00:06:07;;;;;;;13.88;5.90;;;3.10;99.90;;;;;;4969958;28;20027;-74
2020/12/19 00:08:33;;;;;;;15.77;5.82;;;3.10;99.90;;;;;;4966664;28;20094;-74
2020/12/19 00:10:59;;;;;;;15.35;6.85;;;3.00;99.90;;;;;;4969430;28;20038;-74
2020/12/19 00:13:24;;;;;;;14.05;6.68;;;3.10;99.90;;;;;;4962869;28;20031;-74
2020/12/19 00:15:50;;;;;;;15.98;6.40;;;3.00;99.90;;;;;;4969775;28;20390;-74
2020/12/19 00:18:16;;;;;;;15.50;6.70;;;3.10;99.90;;;;;;4972304;28;20178;-74
2020/12/19 00:20:43;;;;;;;15.95;6.55;;;3.10;99.90;;;;;;4971261;28;20396;-74
2020/12/19 00:23:09;;;;;;;15.77;7.05;;;3.00;99.90;;;;;;4964321;28;20042;-74
2020/12/19 00:25:35;;;;;;;16.83;6.43;;;3.00;99.90;;;;;;4974354;28;20035;-74
2020/12/19 00:28:01;;;;;;;16.50;5.97;;;3.00;99.90;;;;;;4974988;28;20046;-74
2020/12/19 00:30:26;;;;;;;10.60;5.82;;;3.00;99.90;;;;;;4974645;23;20527;-78
2020/12/19 00:32:52;;;;;;;14.40;6.00;;;3.00;99.90;;;;;;4963251;28;20042;-77
2020/12/19 00:35:18;;;;;;;16.52;6.55;;;3.00;99.90;;;;;;4967140;28;20042;-77
2020/12/19 00:37:44;;;;;;;16.40;6.03;;;3.00;99.90;;;;;;4971607;28;20043;-77
2020/12/19 00:40:10;;;;;;;17.40;6.65;;;3.00;99.90;;;;;;4960485;28;20081;-77
2020/12/19 00:42:38;;;;;;;15.00;6.82;;;3.00;99.90;;;;;;4960865;28;20043;-77
2020/12/19 00:45:06;;;;;;;14.60;6.28;;;3.00;99.90;;;;;;4966081;28;20094;-77
2020/12/19 00:47:36;;;;;;;16.10;6.50;;;3.00;99.90;;;;;;4972925;28;20031;-77
2020/12/19 00:50:07;;;;;;;19.67;6.68;;;3.00;99.90;;;;;;4974026;28;20030;-77
2020/12/19 00:52:34;;;;;;;15.13;6.60;;;2.90;99.90;;;;;;4970225;28;20051;-77
2020/12/19 00:55:00;;;;;;;12.60;5.72;;;3.00;99.90;;;;;;4966084;28;20026;-77
2020/12/19 00:57:30;;;;;;;14.88;6.30;;;3.00;99.90;;;;;;4974260;28;20027;-78
2020/12/19 00:59:57;;;;;;;15.23;5.78;;;3.00;99.90;;;;;;4961072;28;20632;-78
2020/12/19 01:02:23;;;;;;;16.98;6.70;;;3.00;99.90;;;;;;4963292;28;20124;-77
2020/12/19 01:04:50;;;;;;;18.60;5.57;;;3.00;99.90;;;;;;4964537;28;20054;-77
2020/12/19 01:07:15;;;;;;;16.00;6.57;;;2.90;99.90;;;;;;4973274;28;20456;-78
2020/12/19 01:09:41;;;;;;;13.80;6.45;;;3.00;99.90;;;;;;4972259;28;20058;-77
2020/12/19 01:12:07;;;;;;;13.35;5.93;;;3.00;99.90;;;;;;4965677;28;20038;-77
2020/12/19 01:14:33;;;;;;;11.07;5.93;;;3.00;99.90;;;;;;4966317;28;20437;-78
2020/12/19 01:17:02;;;;;;;14.13;5.93;;;2.90;99.90;;;;;;4972326;28;20034;-77
2020/12/19 01:19:28;;;;;;;12.45;5.95;;;3.00;99.90;;;;;;4970978;28;20561;-76
2020/12/19 01:21:54;;;;;;;10.38;5.38;;;3.00;99.90;;;;;;4965476;28;20039;-77
2020/12/19 01:24:19;;;;;;;15.25;6.00;;;2.90;99.90;;;;;;4959787;28;20122;-77
2020/12/19 01:26:47;;;;;;;12.13;5.63;;;2.90;99.90;;;;;;4973590;28;20034;-77
2020/12/19 01:29:13;;;;;;;12.07;5.60;;;2.90;99.90;;;;;;4972777;28;20084;-78
2020/12/19 01:31:39;;;;;;;11.57;5.45;;;2.90;99.90;;;;;;4967192;28;20069;-76
2020/12/19 01:34:05;;;;;;;8.57;4.53;;;2.80;99.90;;;;;;4971711;28;20852;-77
2020/12/19 01:36:31;;;;;;;12.02;5.45;;;2.80;99.90;;;;;;4972616;28;20039;-77
2020/12/19 01:38:56;;;;;;;11.25;5.20;;;2.80;99.90;;;;;;4952667;28;20497;-77
2020/12/19 01:41:22;;;;;;;9.05;4.85;;;2.80;99.90;;;;;;4957656;28;20112;-77
2020/12/19 01:43:53;;;;;;;9.10;4.88;;;2.80;99.90;;;;;;4971005;28;20708;-76
2020/12/19 01:46:46;;;;;;;9.93;4.97;;;2.80;99.90;;;;;;4972993;28;20027;-77
2020/12/19 01:49:13;;;;;;;12.02;5.25;;;2.70;99.90;;;;;;4972926;28;20041;-79
2020/12/19 01:51:39;;;;;;;10.88;5.00;;;2.70;99.90;;;;;;4964029;28;20094;-77
2020/12/19 01:54:08;;;;;;;11.60;5.10;;;2.70;99.90;;;;;;4971489;28;20027;-78
2020/12/19 01:56:39;;;;;;;8.85;4.97;;;2.70;99.90;;;;;;4973163;28;20037;-77
2020/12/19 01:59:06;;;;;;;11.23;5.20;;;2.70;99.90;;;;;;4969059;28;20034;-77
2020/12/19 02:01:42;;;;;;;8.77;4.43;;;2.80;99.90;;;;;;4947773;28;20065;-76
2020/12/19 02:04:08;;;;;;;7.88;4.05;;;2.80;99.90;;;;;;4951649;28;20035;-77
2020/12/19 02:06:34;;;;;;;11.85;5.05;;;2.80;99.90;;;;;;4961958;28;20023;-76
2020/12/19 02:08:59;;;;;;;12.07;5.05;;;2.70;99.90;;;;;;4950362;29;20118;-77
2020/12/19 02:11:26;;;;;;;10.70;4.75;;;2.70;99.90;;;;;;4963153;28;20034;-77
2020/12/19 02:13:52;;;;;;;9.45;4.50;;;2.70;99.90;;;;;;4971488;28;20039;-76
2020/12/19 02:16:19;;;;;;;8.52;4.20;;;2.60;99.90;;;;;;4972474;28;20037;-77
2020/12/19 02:18:45;;;;;;;10.95;4.25;;;2.60;99.90;;;;;;4972748;28;20038;-76
2020/12/19 02:21:12;;;;;;;7.85;4.00;;;2.60;99.90;;;;;;4967244;28;20030;-77
2020/12/19 02:23:38;;;;;;;10.70;4.80;;;2.60;99.90;;;;;;4969103;28;20053;-77
2020/12/19 02:26:04;;;;;;;11.77;5.15;;;2.60;99.90;;;;;;4972673;28;20113;-77
2020/12/19 02:28:29;;;;;;;12.63;5.03;;;2.60;99.90;;;;;;4971582;28;20477;-77
2020/12/19 02:30:55;;;;;;;10.63;5.15;;;2.60;99.90;;;;;;4969993;28;20035;-78
2020/12/19 02:33:21;;;;;;;11.43;4.63;;;2.60;99.90;;;;;;4948641;28;20413;-76
2020/12/19 02:35:46;;;;;;;10.43;4.78;;;2.60;99.90;;;;;;4943548;28;20050;-77
2020/12/19 02:38:12;;;;;;;11.90;5.57;;;2.60;99.90;;;;;;4955366;28;20081;-77
2020/12/19 02:40:38;;;;;;;11.10;5.03;;;2.60;99.90;;;;;;4968532;28;20042;-78
2020/12/19 02:43:04;;;;;;;8.70;4.47;;;2.60;99.90;;;;;;4943060;29;20043;-77
2020/12/19 02:45:29;;;;;;;9.90;4.57;;;2.70;99.90;;;;;;4967646;28;20130;-77
2020/12/19 02:47:55;;;;;;;14.43;5.65;;;2.70;99.90;;;;;;4971202;28;20129;-77
2020/12/19 02:50:20;;;;;;;9.95;4.85;;;2.70;99.90;;;;;;4972347;28;20066;-77
2020/12/19 02:52:46;;;;;;;10.00;5.00;;;2.70;99.90;;;;;;4940405;28;20047;-76
2020/12/19 02:55:12;;;;;;;12.55;5.03;;;2.70;99.90;;;;;;4972291;28;20035;-77
2020/12/19 02:57:38;;;;;;;10.23;5.45;;;2.70;99.90;;;;;;4971811;28;20481;-76
2020/12/19 03:00:05;;;;;;;10.60;5.20;;;2.70;99.90;;;;;;4969222;28;20444;-77
2020/12/19 03:02:31;;;;;;;11.20;4.93;;;2.70;99.90;;;;;;4949612;28;20110;-77
2020/12/19 03:04:57;;;;;;;11.88;5.72;;;2.70;99.90;;;;;;4964409;28;20053;-77
2020/12/19 03:07:22;;;;;;;10.07;4.55;;;2.70;99.90;;;;;;4971288;28;20469;-76
2020/12/19 03:09:48;;;;;;;11.45;4.93;;;2.70;99.90;;;;;;4968335;28;20456;-77
2020/12/19 03:12:14;;;;;;;9.98;4.53;;;2.70;99.90;;;;;;4965791;28;20039;-76
2020/12/19 03:14:39;;;;;;;12.20;5.03;;;2.60;99.90;;;;;;4961776;28;20038;-77
2020/12/19 03:17:05;;;;;;;8.52;4.40;;;2.60;99.90;;;;;;4972092;28;20118;-76
2020/12/19 03:19:31;;;;;;;8.68;4.82;;;2.60;99.90;;;;;;4967685;28;20027;-76
2020/12/19 03:21:56;;;;;;;12.60;4.30;;;2.60;99.90;;;;;;4958066;28;20761;-78
2020/12/19 03:24:22;;;;;;;11.60;5.45;;;2.60;99.90;;;;;;4971458;28;20030;-76
2020/12/19 03:26:48;;;;;;;11.68;4.80;;;2.60;99.90;;;;;;4971454;28;20042;-77
2020/12/19 03:29:13;;;;;;;8.50;4.35;;;2.60;99.90;;;;;;4969849;28;20481;-77
2020/12/19 03:31:39;;;;;;;11.07;4.70;;;2.60;99.90;;;;;;4962720;28;20054;-77
2020/12/19 03:34:05;;;;;;;11.38;5.45;;;2.50;99.90;;;;;;4957719;28;20019;-76
2020/12/19 03:36:32;;;;;;;13.18;4.95;;;2.60;99.90;;;;;;4954870;28;20129;-76
2020/12/19 03:38:58;;;;;;;7.40;3.97;;;2.50;99.90;;;;;;4973197;28;20030;-77
2020/12/19 03:41:24;;;;;;;9.85;4.90;;;2.50;99.90;;;;;;4970597;28;20041;-76
2020/12/19 03:43:49;;;;;;;9.90;5.03;;;2.50;99.90;;;;;;4974110;28;20034;-76
2020/12/19 03:46:16;;;;;;;9.60;5.32;;;2.50;99.90;;;;;;4975128;28;20401;-77
2020/12/19 03:48:42;;;;;;;11.63;4.90;;;2.50;99.90;;;;;;4975708;28;20109;-77
2020/12/19 03:51:08;;;;;;;10.98;4.38;;;2.50;99.90;;;;;;4966983;28;20544;-77
2020/12/19 03:53:34;;;;;;;9.70;4.65;;;2.50;99.90;;;;;;4957098;28;20031;-77
2020/12/19 03:56:00;;;;;;;9.38;4.35;;;2.50;99.90;;;;;;4973822;28;20038;-77
2020/12/19 03:58:26;;;;;;;8.68;4.57;;;2.60;99.90;;;;;;4974362;28;20645;-77
2020/12/19 04:00:52;;;;;;;9.77;4.47;;;2.60;99.90;;;;;;4969464;28;20058;-77
2020/12/19 04:03:17;;;;;;;8.93;4.47;;;2.60;99.90;;;;;;4960111;28;20039;-77
2020/12/19 04:05:43;;;;;;;12.10;4.18;;;2.50;99.90;;;;;;4972761;28;20023;-77
2020/12/19 04:08:09;;;;;;;9.40;4.63;;;2.50;99.90;;;;;;4975196;28;20408;-77
2020/12/19 04:10:35;;;;;;;7.32;4.47;;;2.50;99.90;;;;;;4974014;28;20055;-77
2020/12/19 04:13:00;;;;;;;8.25;4.35;;;2.50;99.90;;;;;;4938052;28;20042;-76
2020/12/19 04:15:26;;;;;;;7.93;4.30;;;2.50;99.90;;;;;;4974676;28;20532;-77
2020/12/19 04:17:52;;;;;;;8.30;4.13;;;2.40;99.90;;;;;;4973657;28;20042;-76
2020/12/19 04:20:19;;;;;;;8.30;4.30;;;2.40;99.90;;;;;;4971367;28;20477;-76
2020/12/19 04:22:44;;;;;;;8.55;4.50;;;2.40;99.90;;;;;;4969858;28;20034;-77
2020/12/19 04:25:11;;;;;;;8.15;3.58;;;2.40;99.90;;;;;;4944954;29;20669;-76
2020/12/19 04:27:38;;;;;;;8.82;3.92;;;2.40;99.90;;;;;;4955292;28;20033;-76
2020/12/19 04:30:06;;;;;;;9.48;4.20;;;2.40;99.90;;;;;;4972870;28;20481;-77
2020/12/19 04:32:32;;;;;;;10.07;4.43;;;2.40;99.90;;;;;;4968083;28;20046;-77
2020/12/19 04:34:58;;;;;;;7.78;3.88;;;2.40;99.90;;;;;;4971700;28;20042;-76
2020/12/19 04:37:24;;;;;;;9.75;4.30;;;2.40;99.90;;;;;;4974501;28;20134;-76
2020/12/19 04:39:51;;;;;;;8.77;4.13;;;2.40;99.90;;;;;;4971380;28;20127;-76
2020/12/19 04:42:16;;;;;;;9.00;4.20;;;2.30;99.90;;;;;;4964158;28;20501;-77
2020/12/19 04:44:42;;;;;;;7.65;4.20;;;2.30;99.90;;;;;;4964473;28;20027;-76
2020/12/19 04:47:08;;;;;;;11.25;4.30;;;2.30;99.90;;;;;;4974017;28;20512;-76
2020/12/19 04:49:36;;;;;;;8.05;3.60;;;2.20;99.90;;;;;;4971380;28;20066;-77
2020/12/19 04:52:02;;;;;;;7.57;4.28;;;2.30;99.90;;;;;;4963416;28;20441;-77
2020/12/19 04:54:29;;;;;;;8.80;4.38;;;2.30;99.90;;;;;;4972344;28;20038;-77
2020/12/19 04:56:55;;;;;;;10.32;4.80;;;2.30;99.90;;;;;;4973184;28;20378;-76
2020/12/19 04:59:21;;;;;;;9.80;4.32;;;2.30;99.90;;;;;;4973284;28;20485;-76
2020/12/19 05:01:47;;;;;;;8.75;4.72;;;2.30;99.90;;;;;;4969138;28;20600;-77
2020/12/19 05:04:14;;;;;;;8.93;5.13;;;2.30;99.90;;;;;;4972768;28;20110;-77
2020/12/19 05:06:40;;;;;;;12.00;5.47;;;2.30;99.90;;;;;;4972475;28;20444;-77
2020/12/19 05:09:06;;;;;;;9.55;5.07;;;2.30;99.90;;;;;;4972761;28;20035;-76
2020/12/19 05:11:31;;;;;;;10.88;4.28;;;2.30;99.90;;;;;;4965631;28;20047;-77
2020/12/19 05:13:57;;;;;;;9.90;4.78;;;2.30;99.90;;;;;;4960158;28;20034;-76
2020/12/19 05:16:23;;;;;;;9.70;4.43;;;2.30;99.90;;;;;;4973689;28;20110;-77
2020/12/19 05:18:48;;;;;;;15.60;4.60;;;2.30;99.90;;;;;;4972455;28;20035;-76
2020/12/19 05:21:15;;;;;;;8.60;4.40;;;2.30;99.90;;;;;;4969704;28;20034;-78
2020/12/19 05:23:44;;;;;;;8.98;4.45;;;2.30;99.90;;;;;;4963853;28;20401;-77
2020/12/19 05:26:12;;;;;;;7.05;4.13;;;2.30;99.90;;;;;;4964626;28;20034;-77
2020/12/19 05:28:41;;;;;;;10.35;4.25;;;2.20;99.90;;;;;;4972588;28;20527;-77
2020/12/19 05:31:08;;;;;;;10.57;4.70;;;2.30;99.90;;;;;;4950505;28;20047;-77
2020/12/19 05:33:42;;;;;;;9.18;4.65;;;2.30;99.90;;;;;;4967331;28;20062;-77
2020/12/19 05:36:19;;;;;;;8.32;3.83;;;2.30;99.90;;;;;;4952838;29;20387;-77
2020/12/19 05:38:44;;;;;;;8.50;3.70;;;2.30;99.90;;;;;;4960472;28;20097;-77
2020/12/19 05:41:11;;;;;;;10.65;4.18;;;2.20;99.90;;;;;;4966724;28;20032;-76
2020/12/19 05:43:49;;;;;;;11.13;5.28;;;2.20;99.90;;;;;;4970292;28;20041;-77
2020/12/19 05:46:38;;;;;;;9.82;4.30;;;2.20;99.90;;;;;;4972060;28;20038;-77
2020/12/19 05:49:06;;;;;;;10.38;4.38;;;2.30;99.90;;;;;;4973049;28;20393;-77
2020/12/19 05:51:33;;;;;;;9.07;4.68;;;2.30;99.90;;;;;;4970167;28;20074;-77
2020/12/19 05:54:13;;;;;;;12.25;5.53;;;2.30;99.90;;;;;;4971603;28;20062;-77
2020/12/19 05:56:42;;;;;;;9.27;4.63;;;2.20;99.90;;;;;;4972833;28;20481;-77
2020/12/19 05:59:17;;;;;;;8.65;4.55;;;2.30;99.90;;;;;;4972869;28;20054;-77
2020/12/19 06:01:47;;;;;;;9.80;4.82;;;2.20;99.90;;;;;;4965028;28;20085;-77
2020/12/19 06:04:14;;;;;;;9.45;4.68;;;2.20;99.90;;;;;;4970695;28;20027;-77
2020/12/19 06:06:42;;;;;;;12.98;4.88;;;2.20;99.90;;;;;;4971493;28;20499;-78
2020/12/19 06:09:10;;;;;;;9.13;4.57;;;2.30;99.90;;;;;;4963256;28;20074;-77
2020/12/19 06:12:22;;;;;;;7.22;4.38;;;2.30;99.90;;;;;;4969111;28;20053;-77
2020/12/19 06:14:53;;;;;;;8.60;4.40;;;2.30;99.90;;;;;;4916234;29;20035;-77
2020/12/19 06:17:33;;;;;;;11.27;5.28;;;2.20;99.90;;;;;;4912851;29;20059;-77
2020/12/19 06:20:02;;;;;;;7.80;4.22;;;2.30;99.90;;;;;;4943999;28;20042;-77
2020/12/19 06:22:29;;;;;;;6.57;3.63;;;2.20;99.90;;;;;;4963509;28;20039;-77
2020/12/19 06:24:56;;;;;;;8.32;4.05;;;2.20;99.90;;;;;;4972779;28;20023;-77
2020/12/19 06:27:22;;;;;;;9.13;4.50;;;2.20;99.90;;;;;;4972536;28;20043;-77
2020/12/19 06:29:49;;;;;;;8.82;3.70;;;2.20;99.90;;;;;;4987449;23;20389;-74
2020/12/19 06:32:22;;;;;;;7.63;4.20;;;2.20;99.90;;;;;;4978095;28;20396;-74
2020/12/19 06:35:06;;;;;;;7.18;3.72;;;2.20;99.90;;;;;;4979588;28;20132;-74
2020/12/19 06:37:34;;;;;;;5.60;3.42;;;2.10;99.90;;;;;;4976866;28;20488;-75
2020/12/19 06:40:10;;;;;;;7.93;4.18;;;2.20;99.90;;;;;;4983648;28;20101;-74
2020/12/19 06:42:36;;;;;;;8.55;4.10;;;2.20;99.90;;;;;;4985761;28;20030;-75
2020/12/19 06:45:20;;;;;;;8.57;4.00;;;2.20;99.90;;;;;;4990070;28;20109;-74
2020/12/19 06:47:46;;;;;;;8.07;4.00;;;2.20;99.90;;;;;;4991656;28;20072;-74
2020/12/19 06:50:11;;;;;;;8.43;4.22;;;2.10;99.90;;;;;;4989947;28;20431;-74
2020/12/19 06:52:38;;;;;;;9.20;4.53;;;2.10;99.90;;;;;;4986578;28;20080;-74
2020/12/19 06:55:20;;;;;;;7.78;4.25;;;2.00;99.90;;;;;;4988319;28;20093;-75
2020/12/19 06:57:51;;;;;;;7.13;3.88;;;2.00;99.90;;;;;;4991602;28;20121;-74
2020/12/19 07:00:22;;;;;;;7.70;4.00;;;2.00;99.90;;;;;;4985998;28;20114;-74
2020/12/19 07:02:55;;;;;;;6.43;3.90;;;2.00;99.90;;;;;;4973720;28;20039;-74
2020/12/19 07:05:29;;;;;;;8.60;4.45;;;2.10;99.90;;;;;;4983017;28;20031;-74
2020/12/19 07:08:18;;;;;;;8.27;3.65;;;2.10;99.90;;;;;;4991495;28;20045;-75
2020/12/19 07:10:44;;;;;;;8.20;3.95;;;2.00;99.90;;;;;;4970179;28;20800;-74
2020/12/19 07:13:09;;;;;;;8.85;4.13;;;2.00;99.90;;;;;;4985670;28;20046;-74
2020/12/19 07:15:52;;;;;;;10.52;4.75;;;2.00;99.90;;;;;;4993389;28;20133;-74
2020/12/19 07:18:27;;;;;;;7.80;4.03;;;2.00;99.90;;;;;;4995358;28;20034;-75
2020/12/19 07:21:04;;;;;;;8.35;4.30;;;2.00;99.90;;;;;;4990422;28;20048;-74
2020/12/19 07:23:35;;;;;;;7.63;3.78;;;2.00;99.90;;;;;;4989868;28;20022;-75
2020/12/19 07:26:01;;;;;;;7.72;3.38;;;1.90;99.90;;;;;;4993149;28;20038;-74
2020/12/19 07:28:27;;;;;;;7.85;4.50;;;1.90;99.90;;;;;;4995311;28;20448;-74
2020/12/19 07:30:53;;;;;;;8.00;4.35;;;1.90;99.90;;;;;;4992169;28;20027;-75
2020/12/19 07:33:19;;;;;;;7.10;3.65;;;1.90;99.90;;;;;;4975048;28;20089;-75
2020/12/19 07:35:45;;;;;;;6.82;3.92;;;1.90;99.90;;;;;;4982211;28;20045;-75
2020/12/19 07:38:11;;;;;;;9.32;4.18;;;1.80;99.90;;;;;;4993526;28;20618;-74
2020/12/19 07:40:37;;;;;;;8.60;4.47;;;1.80;99.90;;;;;;4988739;28;20042;-74
2020/12/19 07:43:05;;;;;;;7.57;4.07;;;1.80;99.90;;;;;;4988942;28;20038;-75
2020/12/19 07:45:31;;;;;;;10.75;4.55;;;1.90;99.90;;;;;;4993333;28;20496;-75
2020/12/19 07:47:56;;;;;;;8.90;5.03;;;1.90;99.90;;;;;;4991957;28;20085;-75
2020/12/19 07:50:30;;;;;;;9.77;4.32;;;1.90;99.90;;;;;;4987546;28;20495;-74
2020/12/19 07:53:03;;;;;;;10.18;4.55;;;1.90;99.90;;;;;;4986468;28;20085;-75
2020/12/19 07:55:29;;;;;;;11.07;5.22;;;1.90;99.90;;;;;;4987727;28;20038;-74
2020/12/19 07:57:55;;;;;;;8.05;3.97;;;1.90;99.90;;;;;;4987507;28;20595;-74
2020/12/19 08:00:25;;;;;;;7.25;4.00;;;1.90;99.90;;;;;;4987235;28;20051;-75
2020/12/19 08:02:51;;;;;;;11.25;4.68;;;1.90;99.90;;;;;;4989978;28;20058;-74
2020/12/19 08:05:18;;;;;;;7.25;3.85;;;1.90;99.90;;;;;;4994688;28;20030;-75
2020/12/19 08:07:44;;;;;;;10.55;4.28;;;1.90;99.90;;;;;;4994142;28;20022;-74
2020/12/19 08:10:13;;;;;;;10.02;4.65;;;1.80;99.90;;;;;;4988875;28;20447;-74
2020/12/19 08:12:42;;;;;;;8.02;4.35;;;1.90;99.90;;;;;;4984558;28;20072;-75
2020/12/19 08:15:10;;;;;;;9.75;4.53;;;1.90;99.90;;;;;;4987114;28;20038;-74
2020/12/19 08:17:44;;;;;;;8.18;4.40;;;1.90;99.90;;;;;;4994102;28;20050;-74
2020/12/19 08:20:10;;;;;;;11.15;5.32;;;1.90;99.90;;;;;;4986787;28;20034;-74
2020/12/19 08:22:36;;;;;;;9.43;4.68;;;2.00;99.90;;;;;;4977112;28;20447;-74
2020/12/19 08:25:02;;;;;;;9.73;4.40;;;2.00;99.90;;;;;;4983954;28;20023;-74
2020/12/19 08:27:43;;;;;;;9.75;4.18;;;2.00;99.90;;;;;;4986338;28;20240;-75
2020/12/19 08:30:24;;;;;;;8.50;4.45;;;1.90;99.90;;;;;;4989297;28;20080;-73
2020/12/19 08:32:55;;;;;;;7.25;4.13;;;1.90;99.90;;;;;;4965784;28;20133;-74
2020/12/19 08:35:28;;;;;;;8.40;4.75;;;2.00;99.90;;;;;;4984488;28;20381;-74
2020/12/19 08:38:05;;;;;;;8.20;4.68;;;2.00;99.90;;;;;;4984653;28;20036;-74
2020/12/19 08:40:33;;;;;;;5.75;3.65;;;2.00;99.90;;;;;;4979414;28;20129;-74
2020/12/19 08:42:59;;;;;;;6.75;3.85;;;2.00;99.90;;;;;;4983588;28;20054;-74
2020/12/19 08:45:33;;;;;;;8.38;3.72;;;2.10;99.90;;;;;;4966453;28;20063;-75
2020/12/19 08:48:20;;;;;;;10.20;4.25;;;2.10;99.90;;;;;;4988337;28;20034;-75
2020/12/19 08:50:48;;;;;;;9.70;4.25;;;2.10;99.90;;;;;;4980408;28;20019;-74
2020/12/19 08:53:26;;;;;;;7.57;4.15;;;2.10;99.90;;;;;;4981997;28;20069;-74
2020/12/19 08:55:54;;;;;;;7.07;3.97;;;2.10;99.90;;;;;;4983600;28;20034;-76
2020/12/19 08:58:23;;;;;;;7.65;3.83;;;2.00;99.90;;;;;;4984876;28;20042;-73
2020/12/19 09:00:50;;;;;;;7.53;4.18;;;2.10;99.90;;;;;;4976837;28;20026;-74
2020/12/19 09:03:33;;;;;;;8.45;3.88;;;2.20;99.90;;;;;;4983133;28;20061;-74
2020/12/19 09:06:07;;;;;;;9.52;4.68;;;2.20;99.90;;;;;;4980169;28;20640;-73
2020/12/19 09:08:42;;;;;;;7.25;3.53;;;2.20;99.90;;;;;;4982965;28;20081;-74
2020/12/19 09:11:21;;;;;;;7.57;3.70;;;2.20;99.90;;;;;;4964717;28;20426;-73
2020/12/19 09:13:47;;;;;;;8.27;4.60;;;2.20;99.90;;;;;;4981485;28;20035;-73
2020/12/19 09:16:12;;;;;;;7.57;4.00;;;2.20;99.90;;;;;;4985002;28;20035;-74
2020/12/19 09:18:39;;;;;;;8.23;4.32;;;2.20;99.90;;;;;;4983494;28;20038;-73
2020/12/19 09:21:07;;;;;;;8.23;3.97;;;2.20;99.90;;;;;;4984588;28;20057;-74
2020/12/19 09:23:33;;;;;;;7.43;4.18;;;2.20;99.90;;;;;;4982227;28;20053;-74
2020/12/19 09:26:01;;;;;;;7.55;4.18;;;2.30;99.90;;;;;;4980402;28;20092;-73
2020/12/19 09:28:27;;;;;;;7.93;4.28;;;2.30;99.90;;;;;;4991864;28;20039;-73
2020/12/19 09:30:54;;;;;;;6.97;4.00;;;2.30;99.90;;;;;;4987001;28;20050;-73
2020/12/19 09:33:21;;;;;;;7.28;4.28;;;2.30;99.90;;;;;;4977983;28;20413;-73
2020/12/19 09:35:47;;;;;;;7.88;3.78;;;2.30;99.90;;;;;;4981843;28;20046;-74
2020/12/19 09:38:13;;;;;;;6.32;3.92;;;2.30;99.90;;;;;;4980947;28;20117;-73
2020/12/19 09:40:39;;;;;;;7.00;4.50;;;2.30;99.90;;;;;;4978805;28;20113;-74
2020/12/19 09:43:06;;;;;;;5.82;3.75;;;2.30;99.90;;;;;;4977802;28;20125;-74
2020/12/19 09:45:33;;;;;;;7.53;4.15;;;2.30;99.90;;;;;;4968651;28;20027;-73
2020/12/19 09:47:59;;;;;;;7.45;4.22;;;2.40;99.90;;;;;;4981318;28;20110;-74
2020/12/19 09:50:26;;;;;;;8.18;4.25;;;2.40;99.90;;;;;;4979468;28;20401;-74
2020/12/19 09:52:52;;;;;;;7.65;4.53;;;2.50;99.90;;;;;;4971621;28;20034;-73
2020/12/19 09:55:19;;;;;;;11.18;3.83;;;2.50;99.90;;;;;;4976501;28;20133;-73
2020/12/19 09:57:45;;;;;;;6.82;3.70;;;2.50;99.90;;;;;;4980506;28;20093;-73
2020/12/19 10:00:12;;;;;;;8.80;3.97;;;2.50;99.90;;;;;;4947608;28;20035;-74
2020/12/19 10:02:38;;;;;;;7.57;4.32;;;2.50;99.90;;;;;;4975287;28;20165;-73
2020/12/19 10:05:05;;;;;;;6.15;3.67;;;2.60;99.90;;;;;;4973651;28;20106;-74
2020/12/19 10:07:31;;;;;;;7.00;3.85;;;2.60;99.90;;;;;;4966857;28;20644;-74
2020/12/19 10:09:57;;;;;;;6.13;4.15;;;2.60;99.90;;;;;;4983653;28;20081;-73
2020/12/19 10:12:23;;;;;;;6.57;3.85;;;2.60;99.90;;;;;;4979266;28;20026;-73
2020/12/19 10:14:48;;;;;;;6.95;3.95;;;2.60;99.90;;;;;;4973045;28;20093;-73
2020/12/19 10:17:14;;;;;;;7.10;3.95;;;2.60;99.90;;;;;;4975366;28;20574;-74
2020/12/19 10:19:40;;;;;;;7.70;3.83;;;2.60;99.90;;;;;;4970956;28;20136;-73
2020/12/19 10:22:06;;;;;;;8.48;4.60;;;2.60;99.90;;;;;;4973405;28;20038;-73
2020/12/19 10:24:32;;;;;;;8.50;4.65;;;2.60;99.90;;;;;;4969024;28;20295;-74
2020/12/19 10:26:57;;;;;;;7.65;4.28;;;2.60;99.90;;;;;;4956976;28;20101;-74
2020/12/19 10:29:23;;;;;;;8.57;4.03;;;2.60;99.90;;;;;;4974250;28;20040;-73
2020/12/19 10:31:49;;;;;;;7.30;4.38;;;2.60;99.90;;;;;;4974307;28;20037;-73
2020/12/19 10:34:14;;;;;;;5.97;4.07;;;2.60;99.90;;;;;;4977184;28;20034;-73
2020/12/19 10:36:40;;;;;;;5.93;3.50;;;2.60;99.90;;;;;;4979235;28;20030;-73
2020/12/19 10:39:06;;;;;;;6.05;3.53;;;2.60;99.90;;;;;;4985367;28;20022;-73
2020/12/19 10:41:32;;;;;;;6.32;3.92;;;2.50;99.90;;;;;;4978343;28;20448;-73
2020/12/19 10:43:58;;;;;;;7.70;4.35;;;2.50;99.90;;;;;;4981814;28;20110;-73
2020/12/19 10:46:25;;;;;;;6.03;4.03;;;2.50;99.90;;;;;;4984761;28;20484;-73
2020/12/19 10:48:52;;;;;;;5.82;3.50;;;2.60;99.90;;;;;;4989174;28;20833;-74
2020/12/19 10:51:28;;;;;;;6.07;3.50;;;2.60;99.90;;;;;;4966344;28;20100;-73
2020/12/19 10:53:55;;;;;;;7.40;3.80;;;2.60;99.90;;;;;;4981980;28;20034;-74
2020/12/19 10:56:21;;;;;;;6.85;4.00;;;2.50;99.90;;;;;;4983009;28;20041;-73
2020/12/19 10:58:48;;;;;;;8.15;4.30;;;2.50;99.90;;;;;;4983264;28;20030;-74
2020/12/19 11:01:14;;;;;;;6.35;4.35;;;2.50;99.90;;;;;;4986693;28;20045;-74
2020/12/19 11:03:41;;;;;;;6.95;4.05;;;2.60;99.90;;;;;;4979520;28;20043;-74
2020/12/19 11:06:07;;;;;;;7.40;3.70;;;2.60;99.90;;;;;;4985527;28;20022;-74
2020/12/19 11:08:34;;;;;;;6.03;3.70;;;2.50;99.90;;;;;;4988684;28;20781;-74
2020/12/19 11:10:59;;;;;;;6.97;3.97;;;2.50;99.90;;;;;;4980921;28;20393;-73
2020/12/19 11:13:25;;;;;;;6.25;3.83;;;2.40;99.90;;;;;;4969861;28;20042;-73
2020/12/19 11:15:51;;;;;;;7.05;4.22;;;2.40;99.90;;;;;;4988147;28;20396;-73
2020/12/19 11:18:16;;;;;;;8.32;3.90;;;2.50;99.90;;;;;;4990807;28;20038;-73
2020/12/19 11:20:42;;;;;;;5.80;3.63;;;2.40;99.90;;;;;;4986773;28;20034;-74
2020/12/19 11:23:08;;;;;;;6.72;4.03;;;2.40;99.90;;;;;;4983437;28;20139;-74
2020/12/19 11:25:33;;;;;;;5.95;3.95;;;2.50;99.90;;;;;;4980128;28;20532;-73
2020/12/19 11:27:59;;;;;;;6.82;4.15;;;2.50;99.90;;;;;;4990661;28;20031;-74
2020/12/19 11:30:25;;;;;;;7.32;4.13;;;2.50;99.90;;;;;;4981675;28;20130;-73
2020/12/19 11:32:50;;;;;;;6.60;3.75;;;2.60;99.90;;;;;;4985145;28;20026;-73
2020/12/19 11:35:16;;;;;;;5.65;3.70;;;2.60;99.90;;;;;;4987956;28;20085;-73
2020/12/19 11:37:42;;;;;;;6.82;3.58;;;2.60;99.90;;;;;;4989739;28;20612;-74
2020/12/19 11:40:08;;;;;;;7.43;4.22;;;2.70;99.90;;;;;;4988548;28;20030;-74
2020/12/19 11:42:36;;;;;;;5.68;3.75;;;2.60;99.90;;;;;;4980363;28;20089;-73
2020/12/19 11:45:02;;;;;;;6.88;4.18;;;2.60;99.90;;;;;;4974035;28;20035;-73
2020/12/19 11:47:28;;;;;;;7.00;3.58;;;2.70;99.90;;;;;;4990638;28;20085;-74
2020/12/19 11:49:53;;;;;;;7.07;3.88;;;2.70;99.90;;;;;;4987557;28;20400;-74
2020/12/19 11:52:19;;;;;;;5.97;3.22;;;2.50;99.90;;;;;;4985315;28;20756;-74
2020/12/19 11:54:45;;;;;;;6.60;3.65;;;2.40;99.90;;;;;;4990971;28;20058;-74
2020/12/19 11:57:10;;;;;;;7.65;4.00;;;2.40;99.90;;;;;;4990844;28;20512;-73
2020/12/19 11:59:36;;;;;;;9.00;4.60;;;2.40;99.90;;;;;;4993643;28;20034;-74
2020/12/19 12:02:03;;;;;;;7.95;3.92;;;2.30;99.90;;;;;;4987317;28;20492;-74
2020/12/19 12:04:29;;;;;;;6.80;3.97;;;2.30;99.90;;;;;;4979384;28;20073;-75
2020/12/19 12:06:55;;;;;;;6.88;4.43;;;2.40;99.90;;;;;;4976586;28;20305;-73
2020/12/19 12:09:20;;;;;;;7.63;4.15;;;2.40;99.90;;;;;;4970064;28;20061;-73
2020/12/19 12:11:49;;;;;;;8.02;4.95;;;2.40;99.90;;;;;;4978091;28;20026;-75
2020/12/19 12:14:15;;;;;;;6.15;3.90;;;2.50;99.90;;;;;;4982043;28;20061;-74
2020/12/19 12:16:40;;;;;;;7.15;4.13;;;2.40;99.90;;;;;;4975232;28;20035;-72
2020/12/19 12:19:06;;;;;;;6.85;4.05;;;2.40;99.90;;;;;;4975492;28;20080;-74
2020/12/19 12:21:39;;;;;;;6.53;3.58;;;2.40;99.90;;;;;;4964773;28;20038;-74
2020/12/19 12:24:06;;;;;;;7.60;4.20;;;2.40;99.90;;;;;;4978555;28;20027;-73
2020/12/19 12:26:33;;;;;;;7.78;4.65;;;2.40;99.90;;;;;;4979931;28;20022;-73
2020/12/19 12:29:00;;;;;;;6.32;4.22;;;2.30;99.90;;;;;;4980556;28;20031;-73
2020/12/19 12:31:28;;;;;;;6.45;4.20;;;2.30;99.90;;;;;;4980549;23;20038;-74
2020/12/19 12:33:55;;;;;;;7.53;4.22;;;2.40;99.90;;;;;;4973209;28;20027;-74
2020/12/19 12:36:23;;;;;;;9.65;4.57;;;2.40;99.90;;;;;;4981556;28;20030;-74
2020/12/19 12:38:49;;;;;;;6.93;3.88;;;2.50;99.90;;;;;;4976756;28;20046;-75
2020/12/19 12:41:15;;;;;;;6.90;4.38;;;2.50;99.90;;;;;;4971885;28;20555;-74
2020/12/19 12:43:41;;;;;;;7.70;4.50;;;2.50;99.90;;;;;;4982914;28;20038;-74
2020/12/19 12:46:11;;;;;;;6.57;4.47;;;2.50;99.90;;;;;;4985281;28;20559;-75
2020/12/19 12:48:37;;;;;;;8.18;5.03;;;2.60;99.90;;;;;;4986474;28;20076;-75
2020/12/19 12:51:06;;;;;;;7.55;5.15;;;2.60;99.90;;;;;;4982701;28;20117;-74
2020/12/19 12:53:32;;;;;;;7.53;4.47;;;2.70;99.90;;;;;;4984674;28;20030;-74
2020/12/19 12:55:58;;;;;;;7.35;4.55;;;2.70;99.90;;;;;;4988753;28;20692;-74